ADDS METAR Data INFO
IDs: Format: Raw Decoded Include TAF

Data at: 0957 UTC 22 May 2018

KBWI 220954Z 00000KT 10SM SCT046 BKN080 BKN210 18/14 A3011 RMK AO2 SLP193 T01780144
KBWI 220854Z 13003KT 10SM BKN049 BKN065 18/14 A3011 RMK AO2 SLP194 T01830144 56010
KBWI 220754Z 12004KT 10SM BKN050 BKN075 18/14 A3012 RMK AO2 SLP196 T01830144
KBWI 220654Z 18003KT 10SM BKN047 BKN055 OVC070 19/14 A3012 RMK AO2 SLP198 T01890144
KBWI 220554Z 22003KT 10SM BKN050 BKN160 19/14 A3014 RMK AO2 SLP205 T01890144 10233 20189 58003
KBWI 220454Z 15003KT 10SM BKN060 BKN160 BKN250 19/14 A3015 RMK AO2 SLP208 T01890144 402610183
KBWI 220354Z 19003KT 10SM FEW080 SCT160 BKN250 19/16 A3015 RMK AO2 SLP207 T01890156
KBWI 220254Z 14004KT 10SM FEW080 BKN160 BKN250 19/16 A3015 RMK AO2 SLP208 T01940156 53007
KBWI 220154Z 16005KT 10SM FEW085 BKN160 BKN250 21/16 A3014 RMK AO2 SLP205 T02060161
KBWI 220054Z 17003KT 10SM FEW085 SCT160 BKN250 22/16 A3014 RMK AO2 SLP203 T02220156
KBWI 212354Z 00000KT 10SM FEW050 FEW085 BKN160 BKN250 23/15 A3013 RMK AO2 SLP201 T02330150 10261 20233 53001
KBWI 212254Z 12007KT 10SM FEW050 BKN160 BKN250 24/15 A3013 RMK AO2 SLP201 T02440150
KBWI 212154Z 12008KT 10SM FEW050 BKN160 BKN250 25/15 A3012 RMK AO2 SLP199 T02500150
KBWI 212054Z 13007KT 10SM FEW055 SCT160 BKN250 26/16 A3013 RMK AO2 SLP200 T02560156 56013
KBWI 211954Z 11005KT 10SM SCT055 SCT160 BKN250 26/15 A3014 RMK AO2 SLP203 T02560150
KBWI 211854Z 00000KT 10SM SCT060 SCT160 BKN250 26/15 A3015 RMK AO2 SLP207 T02560150
KBWI 211754Z 01003KT 10SM FEW060 SCT160 BKN250 26/15 A3017 RMK AO2 SLP213 T02560150 10256 20200 58015
KBWI 211654Z VRB03KT 10SM FEW060 SCT160 BKN250 24/14 A3019 RMK AO2 SLP221 T02440144
KBWI 211554Z 12007KT 10SM FEW060 SCT160 BKN250 23/14 A3020 RMK AO2 SLP225 T02330139
KBWI 211454Z 06007KT 10SM FEW055 SCT160 SCT250 23/14 A3021 RMK AO2 SLP228 T02280139 50007
KBWI 211354Z 08009KT 10SM FEW055 FEW160 SCT250 22/13 A3021 RMK AO2 SLP230 T02170133
KBWI 211254Z 07010KT 10SM FEW055 FEW160 BKN250 21/14 A3020 RMK AO2 SLP225 T02110139
KBWI 211154Z 06011KT 10SM FEW055 SCT160 BKN250 20/14 A3019 RMK AO2 SLP221 T02000139 10211 20183 51022
KBWI 211054Z 05008KT 10SM FEW055 BKN160 BKN250 19/15 A3017 RMK AO2 SLP215 T01890150
KBWI 210954Z 05005KT 10SM SCT055 BKN160 BKN250 19/16 A3016 RMK AO2 SLP211 T01890161
KBWI 210854Z 07006KT 10SM FEW060 SCT160 BKN250 19/17 A3012 RMK AO2 SLP199 T01890167 53014
KBWI 210754Z 05006KT 10SM FEW060 SCT160 BKN250 20/17 A3011 RMK AO2 SLP194 T02000167
KBWI 210654Z 03005KT 10SM FEW160 BKN250 21/17 A3010 RMK AO2 SLP190 T02060167
KBWI 210554Z 01003KT 10SM FEW090 BKN250 21/17 A3008 RMK AO2 SLP185 T02110167 10283 20194 53010
KBWI 210454Z 00000KT 10SM FEW090 BKN250 20/18 A3007 RMK AO2 SLP180 T02000178 403110200
KBWI 210354Z 34003KT 10SM SCT090 BKN250 23/17 A3006 RMK AO2 SLP177 T02280172
KBWI 210254Z 01004KT 10SM FEW090 SCT250 24/17 A3005 RMK AO2 SLP175 T02440172 53017
KBWI 210154Z 00000KT 10SM SCT250 23/19 A3004 RMK AO2 SLP170 T02280189
KBWI 210054Z VRB04KT 10SM FEW090 SCT250 26/18 A3001 RMK AO2 SLP161 T02610178
KBWI 202354Z COR 31003KT 10SM FEW060 SCT090 BKN250 28/18 A3000 RMK AO2 CB DSNT SW SLP157 T02780183 10311 20278 53009
KBWI 202254Z 32007KT 10SM FEW060 SCT090 BKN250 29/17 A2998 RMK AO2 SLP152 T02940172